Time;durP1;ratioP1;P1;durP2;ratioP2;P2;SDS_P1;SDS_P2;PMS_P1;PMS_P2;Temp;Humidity;BMP_temperature;BMP_pressure;BME280_temperature;BME280_humidity;BME280_pressure;Samples;Min_cycle;Max_cycle;Signal;HPM_P1;HPM_P2
2022/08/28 00:00:24;;;;;;;35.65;8.18;;;;;;;22.79;100.00;151768.34;5094209;28;20593;-61
2022/08/28 00:02:51;;;;;;;27.25;7.80;;;;;;;22.73;100.00;151754.34;5094264;28;20188;-62
2022/08/28 00:05:20;;;;;;;37.58;7.97;;;;;;;22.47;100.00;151687.97;5094074;28;20184;-62
2022/08/28 00:07:47;;;;;;;37.33;8.10;;;;;;;22.75;100.00;151758.13;5094165;28;20184;-62
2022/08/28 00:10:17;;;;;;;30.50;7.40;;;;;;;22.56;100.00;151709.66;5093720;28;20202;-61
2022/08/28 00:12:45;;;;;;;45.78;9.00;;;;;;;22.74;100.00;151756.84;5093359;28;20211;-62
2022/08/28 00:15:15;;;;;;;39.28;7.50;;;;;;;22.74;100.00;151755.63;5094109;28;20249;-62
2022/08/28 00:17:43;;;;;;;37.53;7.57;;;;;;;22.64;100.00;151730.06;5093885;28;20650;-62
2022/08/28 00:20:12;;;;;;;31.52;7.30;;;;;;;22.39;100.00;151667.56;5093989;28;20568;-62
2022/08/28 00:22:40;;;;;;;17.33;7.20;;;;;;;22.50;100.00;151694.31;5094024;28;20184;-61
2022/08/28 00:25:09;;;;;;;34.85;7.50;;;;;;;22.45;100.00;151681.59;5093454;28;20190;-62
2022/08/28 00:27:52;;;;;;;30.65;7.60;;;;;;;22.35;100.00;151657.38;5093809;28;20528;-62
2022/08/28 00:30:20;;;;;;;35.55;7.60;;;;;;;22.45;100.00;151682.84;5093457;28;20184;-62
2022/08/28 00:32:47;;;;;;;33.22;7.30;;;;;;;22.16;100.00;151610.16;5093895;28;20204;-62
2022/08/28 00:35:16;;;;;;;24.00;8.43;;;;;;;21.98;100.00;151564.25;5093263;28;20184;-63
2022/08/28 00:37:44;;;;;;;28.55;8.27;;;;;;;22.03;100.00;151577.00;5093543;28;20261;-62
2022/08/28 00:40:14;;;;;;;30.33;8.15;;;;;;;22.04;100.00;151579.56;5093154;28;20184;-62
2022/08/28 00:42:43;;;;;;;33.17;8.15;;;;;;;21.96;100.00;151559.19;5093497;28;20199;-62
2022/08/28 00:45:11;;;;;;;28.90;8.13;;;;;;;22.06;100.00;151583.41;5092886;28;20235;-62
2022/08/28 00:47:39;;;;;;;41.45;8.00;;;;;;;21.94;100.00;151554.06;5093295;28;20183;-62
2022/08/28 00:50:09;;;;;;;25.05;7.85;;;;;;;22.24;100.00;151629.28;5093227;28;20185;-62
2022/08/28 00:52:36;;;;;;;46.10;8.32;;;;;;;22.21;100.00;151622.94;5093309;28;20634;-62
2022/08/28 00:55:12;;;;;;;28.10;7.70;;;;;;;22.07;100.00;151587.22;5093203;28;20551;-62
2022/08/28 00:57:47;;;;;;;30.95;7.70;;;;;;;21.82;100.00;151524.72;5092771;28;20222;-62
2022/08/28 01:00:19;;;;;;;32.08;8.27;;;;;;;21.78;100.00;151514.50;5092784;28;20184;-62
2022/08/28 01:02:46;;;;;;;32.15;7.95;;;;;;;21.78;100.00;151514.50;5092854;28;20187;-62
2022/08/28 01:05:15;;;;;;;48.35;8.63;;;;;;;21.67;100.00;151485.22;5093187;28;20185;-62
2022/08/28 01:07:42;;;;;;;23.58;7.80;;;;;;;21.56;100.00;151457.13;5092311;28;20268;-62
2022/08/28 01:10:13;;;;;;;46.22;7.53;;;;;;;21.10;100.00;151341.13;5092757;28;20199;-62
2022/08/28 01:12:40;;;;;;;29.70;7.97;;;;;;;21.55;100.00;151454.63;5093229;28;20562;-62
2022/08/28 01:15:13;;;;;;;39.53;8.35;;;;;;;21.59;100.00;151466.09;5092744;28;20180;-61
2022/08/28 01:17:46;;;;;;;32.95;8.00;;;;;;;21.62;100.00;151472.44;5092892;28;20199;-62
2022/08/28 01:20:16;;;;;;;30.13;7.97;;;;;;;21.64;100.00;151477.56;5092716;28;20192;-61
2022/08/28 01:22:51;;;;;;;26.35;7.70;;;;;;;21.58;100.00;151462.25;5092892;28;20547;-62
2022/08/28 01:25:23;;;;;;;34.78;7.78;;;;;;;21.15;100.00;151353.94;5092470;28;20187;-61
2022/08/28 01:27:50;;;;;;;35.90;8.73;;;;;;;20.98;100.00;151313.13;5092408;28;20237;-62
2022/08/28 01:30:20;;;;;;;39.75;8.45;;;;;;;21.16;100.00;151357.78;5092423;28;20295;-62
2022/08/28 01:32:50;;;;;;;35.03;8.10;;;;;;;21.22;100.00;151373.03;5092720;28;20239;-62
2022/08/28 01:35:20;;;;;;;27.63;7.50;;;;;;;21.20;100.00;151367.97;5092636;28;20681;-62
2022/08/28 01:37:47;;;;;;;24.17;7.28;;;;;;;21.18;100.00;151361.56;5092316;28;20208;-61
2022/08/28 01:40:21;;;;;;;29.50;7.93;;;;;;;21.40;100.00;151418.94;5092150;28;20190;-61
2022/08/28 01:42:50;;;;;;;26.10;7.53;;;;;;;21.38;100.00;151413.84;5092397;28;20630;-61
2022/08/28 01:45:20;;;;;;;38.70;8.57;;;;;;;21.45;100.00;151430.41;5092021;28;20227;-61
2022/08/28 01:47:47;;;;;;;28.40;7.50;;;;;;;21.44;100.00;151427.84;5092099;28;20180;-62
2022/08/28 01:50:16;;;;;;;35.58;8.07;;;;;;;21.46;100.00;151431.69;5092571;28;20574;-61
2022/08/28 01:52:44;;;;;;;31.15;8.02;;;;;;;21.46;100.00;151432.97;5092707;28;20219;-63
2022/08/28 01:55:11;;;;;;;32.88;8.50;;;;;;;21.46;100.00;151432.97;5091955;28;20199;-61
2022/08/28 01:57:42;;;;;;;19.73;7.13;;;;;;;21.48;100.00;151436.75;5092743;28;20676;-61
2022/08/28 02:00:13;;;;;;;26.83;7.97;;;;;;;21.50;100.00;151441.88;5092423;28;20192;-63
2022/08/28 02:02:39;;;;;;;28.70;8.48;;;;;;;21.20;100.00;151367.97;5092498;28;20198;-61
2022/08/28 02:05:07;;;;;;;33.83;8.48;;;;;;;21.30;100.00;151392.19;5091947;28;20188;-62
2022/08/28 02:07:34;;;;;;;31.42;7.35;;;;;;;21.37;100.00;151411.28;5091934;28;20184;-62
2022/08/28 02:10:02;;;;;;;28.15;7.72;;;;;;;21.42;100.00;151424.03;5092014;28;20184;-62
2022/08/28 02:12:30;;;;;;;33.22;8.05;;;;;;;21.21;100.00;151370.53;5091912;28;20184;-62
2022/08/28 02:14:57;;;;;;;30.88;7.70;;;;;;;21.21;100.00;151369.25;5091881;28;20180;-62
2022/08/28 02:17:25;;;;;;;32.73;8.10;;;;;;;21.24;100.00;151376.88;5091694;28;20219;-62
2022/08/28 02:19:52;;;;;;;26.83;7.88;;;;;;;21.23;100.00;151374.31;5094517;28;20194;-61
2022/08/28 02:22:19;;;;;;;34.50;7.80;;;;;;;21.19;100.00;151364.13;5095864;28;20211;-62
2022/08/28 02:24:46;;;;;;;33.13;7.85;;;;;;;21.28;100.00;151387.06;5095841;28;20187;-61
2022/08/28 02:27:13;;;;;;;34.70;7.95;;;;;;;21.24;100.00;151378.16;5096066;28;20613;-62
2022/08/28 02:29:40;;;;;;;35.40;7.60;;;;;;;21.25;100.00;151379.44;5096090;28;20192;-63
2022/08/28 02:32:07;;;;;;;35.00;7.10;;;;;;;21.23;100.00;151375.59;5095863;28;20230;-62
2022/08/28 02:34:35;;;;;;;35.03;7.70;;;;;;;21.23;100.00;151374.31;5094511;28;20205;-62
2022/08/28 02:37:03;;;;;;;33.88;7.75;;;;;;;21.10;100.00;151342.41;5095539;28;20279;-62
2022/08/28 02:39:30;;;;;;;41.72;7.80;;;;;;;21.02;100.00;151322.03;5096078;28;20192;-62
2022/08/28 02:41:57;;;;;;;32.70;7.72;;;;;;;21.08;100.00;151336.06;5095862;28;20216;-61
2022/08/28 02:44:24;;;;;;;32.83;7.90;;;;;;;20.88;100.00;151286.34;5095339;28;20180;-61
2022/08/28 02:46:51;;;;;;;38.42;8.75;;;;;;;20.75;100.00;151253.28;5095235;28;20605;-61
2022/08/28 02:49:18;;;;;;;18.90;7.37;;;;;;;20.65;100.00;151227.78;5095647;28;20597;-60
2022/08/28 02:51:46;;;;;;;21.23;7.13;;;;;;;20.64;100.00;151225.22;5095649;28;20536;-61
2022/08/28 02:54:13;;;;;;;36.43;8.37;;;;;;;20.60;100.00;151215.03;5095551;28;20203;-62
2022/08/28 02:56:40;;;;;;;21.77;7.95;;;;;;;20.75;100.00;151253.28;5095270;28;20194;-61
2022/08/28 02:59:07;;;;;;;24.43;8.50;;;;;;;20.45;100.00;151178.13;5095498;28;20264;-62
2022/08/28 03:01:34;;;;;;;27.77;9.80;;;;;;;20.35;100.00;144019.28;5095239;28;20188;-61
2022/08/28 03:04:02;;;;;;;39.43;11.03;;;;;;;20.07;100.00;117678.50;5095092;28;20180;-62
2022/08/28 03:06:29;;;;;;;33.07;12.90;;;;;;;20.31;100.00;117725.25;5095390;28;20631;-62
2022/08/28 03:08:58;;;;;;;49.37;13.10;;;;;;;20.33;100.00;125802.66;5095010;28;20180;-62
2022/08/28 03:11:26;;;;;;;38.53;11.60;;;;;;;20.69;100.00;129922.97;5095196;28;20184;-62
2022/08/28 03:13:53;;;;;;;37.63;12.40;;;;;;;20.64;100.00;136430.16;5094925;28;20188;-61
2022/08/28 03:16:20;;;;;;;45.70;11.20;;;;;;;20.64;100.00;143342.38;5094920;28;20230;-61
2022/08/28 03:18:47;;;;;;;46.97;11.23;;;;;;;20.39;100.00;119085.59;5094777;28;20211;-62
2022/08/28 03:21:14;;;;;;;48.33;11.07;;;;;;;20.55;100.00;124500.94;5094869;28;20187;-61
2022/08/28 03:23:41;;;;;;;52.77;11.97;;;;;;;20.63;100.00;122159.78;5094827;28;20184;-61
2022/08/28 03:26:12;;;;;;;60.17;12.93;;;;;;;20.74;100.00;115119.91;5095159;28;20658;-62
2022/08/28 03:28:42;;;;;;;44.67;12.67;;;;;;;20.72;100.00;121841.72;5094946;28;20619;-61
2022/08/28 03:31:10;;;;;;;60.58;19.00;;;;;;;20.50;100.00;109034.25;5094004;28;20188;-62
2022/08/28 03:33:37;;;;;;;62.72;17.42;;;;;;;20.80;100.00;103725.84;5095221;28;20291;-62
2022/08/28 03:36:05;;;;;;;57.83;16.03;;;;;;;20.87;100.00;114137.16;5094551;28;20192;-61
2022/08/28 03:38:32;;;;;;;50.88;15.48;;;;;;;20.95;100.00;124921.97;5094707;28;20215;-62
2022/08/28 03:41:00;;;;;;;57.13;14.68;;;;;;;21.09;100.00;135415.00;5094458;28;20184;-62
2022/08/28 03:43:29;;;;;;;57.60;15.38;;;;;;;21.20;100.00;144167.66;5094380;28;20188;-62
2022/08/28 03:45:58;;;;;;;53.83;12.85;;;;;;;21.20;100.00;151366.69;5094163;28;20247;-62
2022/08/28 03:48:26;;;;;;;59.65;13.27;;;;;;;21.19;100.00;151365.41;5094551;28;20202;-62
2022/08/28 03:50:53;;;;;;;40.22;11.43;;;;;;;21.13;100.00;151348.88;5094642;28;20660;-61
2022/08/28 03:53:20;;;;;;;66.38;13.27;;;;;;;21.27;100.00;151384.50;5094102;28;20204;-62
2022/08/28 03:55:47;;;;;;;38.00;12.77;;;;;;;21.28;100.00;151388.34;5094469;28;20190;-62
2022/08/28 03:58:15;;;;;;;53.38;17.13;;;;;;;21.41;100.00;151421.50;5094220;28;20211;-62
2022/08/28 04:00:43;;;;;;;60.17;18.00;;;;;;;21.52;100.00;151446.94;5094006;28;20184;-62
2022/08/28 04:03:13;;;;;;;59.42;16.15;;;;;;;21.58;100.00;151462.25;5094244;28;20548;-62
2022/08/28 04:05:40;;;;;;;69.60;15.35;;;;;;;21.64;100.00;151477.56;5093913;28;20192;-62
2022/08/28 04:08:07;;;;;;;64.88;16.23;;;;;;;21.75;100.00;151505.59;5094176;28;20211;-62
2022/08/28 04:10:35;;;;;;;47.05;15.65;;;;;;;21.85;100.00;151532.34;5094166;28;20689;-61
2022/08/28 04:13:03;;;;;;;57.03;19.40;;;;;;;21.96;100.00;151559.19;5093777;28;20191;-61
2022/08/28 04:15:29;;;;;;;80.75;24.02;;;;;;;22.14;100.00;151605.09;5093711;28;20286;-62
2022/08/28 04:17:58;;;;;;;82.15;25.70;;;;;;;22.36;100.00;151658.66;5093571;28;20204;-62
2022/08/28 04:20:25;;;;;;;66.30;22.33;;;;;;;22.57;100.00;151712.22;5093672;28;20184;-62
2022/08/28 04:22:52;;;;;;;67.85;24.77;;;;;;;22.73;100.00;151754.34;5094188;28;20226;-63
2022/08/28 04:25:20;;;;;;;78.10;26.92;;;;;;;22.84;100.00;151779.81;5093539;28;20559;-62
2022/08/28 04:27:47;;;;;;;83.75;27.67;;;;;;;23.09;100.00;151843.59;5093741;28;20203;-62
2022/08/28 04:30:14;;;;;;;83.60;31.08;;;;;;;23.22;100.00;151878.06;5092325;28;20279;-62
2022/08/28 04:32:41;;;;;;;83.53;29.42;;;;;;;23.42;100.00;151926.56;5093572;28;20291;-62
2022/08/28 04:35:11;;;;;;;95.70;32.97;;;;;;;23.58;100.00;151968.75;5093324;28;20271;-62
2022/08/28 04:37:38;;;;;;;115.00;33.88;;;;;;;23.76;100.00;152013.41;5093233;28;20184;-63
2022/08/28 04:40:08;;;;;;;91.72;34.55;;;;;;;23.87;100.00;152041.47;5093641;28;20184;-62
2022/08/28 04:42:35;;;;;;;90.88;36.90;;;;;;;24.07;100.00;152092.53;5093490;28;20188;-63
2022/08/28 04:45:03;;;;;;;92.63;36.85;;;;;;;24.20;100.00;152123.22;5093040;28;20232;-61
2022/08/28 04:47:30;;;;;;;102.50;39.40;;;;;;;24.29;100.00;152146.19;5093257;28;20287;-62
2022/08/28 04:49:57;;;;;;;106.22;40.13;;;;;;;24.49;100.00;152197.25;5093144;28;20301;-63
2022/08/28 04:52:26;;;;;;;89.53;37.95;;;;;;;24.73;100.00;152257.31;5093421;28;20191;-62
2022/08/28 04:54:52;;;;;;;103.95;39.97;;;;;;;24.95;100.00;152314.81;5092962;28;20188;-63
2022/08/28 04:57:19;;;;;;;112.85;42.65;;;;;;;25.22;100.00;152381.25;5092948;28;20279;-64
2022/08/28 04:59:46;;;;;;;94.43;43.80;;;;;;;25.47;100.00;152446.41;5092757;28;20204;-62
2022/08/28 05:02:13;;;;;;;104.80;41.92;;;;;;;25.56;100.00;152468.19;5093226;28;20690;-63
2022/08/28 05:04:40;;;;;;;99.25;37.90;;;;;;;25.79;100.00;152527.00;5093261;28;20570;-62
2022/08/28 05:07:07;;;;;;;95.70;39.00;;;;;;;26.11;100.00;152606.22;5093046;28;20180;-63
2022/08/28 05:09:35;;;;;;;111.60;41.25;;;;;;;26.28;100.00;152651.03;5093140;28;20187;-63
2022/08/28 05:12:03;;;;;;;128.38;42.50;;;;;;;26.19;100.00;152626.69;5093019;28;20188;-63
2022/08/28 05:14:30;;;;;;;105.32;39.55;;;;;;;26.62;100.00;152735.41;5091588;28;20192;-63
2022/08/28 05:16:58;;;;;;;88.38;37.50;;;;;;;27.17;100.00;152874.88;5092989;28;20551;-63
2022/08/28 05:19:27;;;;;;;103.85;34.67;;;;;;;27.88;100.00;153054.06;5092521;28;20211;-63
2022/08/28 05:21:54;;;;;;;70.22;31.45;;;;;;;28.55;100.00;153224.38;5093048;28;20653;-64
2022/08/28 05:24:21;;;;;;;59.63;26.40;;;;;;;29.25;100.00;153401.09;5092696;28;20188;-63
2022/08/28 05:26:50;;;;;;;84.20;29.88;;;;;;;29.74;100.00;153526.75;5092718;28;20220;-64
2022/08/28 05:29:17;;;;;;;102.22;44.05;;;;;;;29.77;100.00;153533.13;5092927;28;20248;-63
2022/08/28 05:31:44;;;;;;;101.80;42.65;;;;;;;29.35;100.00;153426.78;5092695;28;20549;-63
2022/08/28 05:34:11;;;;;;;103.72;40.55;;;;;;;29.23;100.00;153396.00;5092645;28;20263;-63
2022/08/28 05:36:39;;;;;;;114.25;43.85;;;;;;;28.96;100.00;153328.13;5092703;28;20580;-63
2022/08/28 05:39:08;;;;;;;112.00;45.13;;;;;;;29.14;100.00;153374.25;5092499;28;20290;-62
2022/08/28 05:41:36;;;;;;;96.35;43.33;;;;;;;29.23;100.00;153396.00;5092767;28;20185;-63
2022/08/28 05:44:07;;;;;;;110.90;46.03;;;;;;;29.30;100.00;153415.25;5092554;28;20184;-63
2022/08/28 05:46:38;;;;;;;108.95;51.40;;;;;;;29.60;100.00;153490.84;5092201;28;20726;-63
2022/08/28 05:49:06;;;;;;;117.93;49.75;;;;;;;30.31;100.00;153670.28;5092246;28;20187;-63
2022/08/28 05:51:34;;;;;;;110.13;50.08;;;;;;;31.27;97.97;153914.00;5092411;28;20184;-63
2022/08/28 05:54:02;;;;;;;128.98;53.03;;;;;;;31.76;93.58;154038.44;5091707;28;20283;-63
2022/08/28 05:56:31;;;;;;;118.57;51.75;;;;;;;32.71;87.69;154279.78;5091965;28;20190;-63
2022/08/28 05:59:00;;;;;;;120.72;49.47;;;;;;;33.16;80.77;154394.06;5091902;28;20203;-63
2022/08/28 06:01:30;;;;;;;118.00;48.17;;;;;;;33.46;79.16;154469.81;5092270;28;20190;-63
2022/08/28 06:03:59;;;;;;;96.32;37.97;;;;;;;33.68;76.59;154526.38;5092565;28;20274;-64
2022/08/28 06:06:28;;;;;;;91.75;37.50;;;;;;;34.20;75.42;154658.72;5092096;28;20180;-63
2022/08/28 06:08:57;;;;;;;86.43;38.17;;;;;;;34.92;71.95;154841.22;5092141;28;20532;-64
2022/08/28 06:11:24;;;;;;;124.13;47.30;;;;;;;34.56;71.09;154748.63;5091788;28;20237;-64
2022/08/28 06:13:51;;;;;;;108.18;46.55;;;;;;;34.04;74.32;154617.53;5092059;28;20195;-64
2022/08/28 06:16:18;;;;;;;90.38;43.67;;;;;;;33.37;77.00;154446.69;5092124;28;20623;-64
2022/08/28 06:18:47;;;;;;;112.07;42.10;;;;;;;32.95;76.57;154341.38;5091831;28;20208;-65
2022/08/28 06:21:14;;;;;;;79.07;33.08;;;;;;;34.16;71.37;154648.41;5091701;28;20219;-64
2022/08/28 06:23:41;;;;;;;73.75;32.08;;;;;;;34.17;71.13;154649.69;5091667;28;20279;-64
2022/08/28 06:26:08;;;;;;;89.85;29.70;;;;;;;34.27;71.37;154675.41;5091685;28;20230;-64
2022/08/28 06:28:35;;;;;;;83.57;26.65;;;;;;;34.26;71.27;154672.81;5092309;28;20259;-64
2022/08/28 06:31:03;;;;;;;73.22;29.98;;;;;;;34.11;73.14;154635.53;5090858;28;20184;-64
2022/08/28 06:33:31;;;;;;;84.75;32.35;;;;;;;33.61;77.19;154507.06;5092075;28;20222;-65
2022/08/28 06:35:59;;;;;;;83.30;31.67;;;;;;;33.39;78.84;154453.13;5091954;28;20195;-64
2022/08/28 06:38:27;;;;;;;88.82;36.70;;;;;;;33.19;80.50;154401.75;5091727;28;20218;-64
2022/08/28 06:40:56;;;;;;;81.60;33.85;;;;;;;33.15;82.63;154390.19;5091574;28;20236;-64
2022/08/28 06:43:25;;;;;;;70.18;33.97;;;;;;;32.92;81.54;154332.41;5091876;28;20184;-63
2022/08/28 06:45:54;;;;;;;66.07;32.30;;;;;;;32.91;82.28;154329.81;5091720;28;20235;-64
2022/08/28 06:48:23;;;;;;;64.78;29.00;;;;;;;32.56;84.04;154241.19;5091996;28;20566;-63
2022/08/28 06:50:52;;;;;;;75.65;28.95;;;;;;;32.81;86.54;154305.41;5091992;28;20650;-64
2022/08/28 06:53:22;;;;;;;58.03;25.25;;;;;;;33.17;83.60;154396.63;5091684;28;20180;-64
2022/08/28 06:55:57;;;;;;;70.82;24.67;;;;;;;33.32;83.86;154435.13;5091569;28;20191;-63
2022/08/28 06:58:26;;;;;;;68.53;27.50;;;;;;;33.43;79.89;154462.13;5092129;28;20634;-64
2022/08/28 07:01:01;;;;;;;80.15;26.58;;;;;;;33.43;77.52;154463.41;5091742;28;20184;-65
2022/08/28 07:03:29;;;;;;;79.68;26.02;;;;;;;33.67;76.13;154523.78;5091561;28;20188;-63
2022/08/28 07:05:56;;;;;;;80.63;27.20;;;;;;;33.78;73.94;154552.03;5092922;28;20551;-63
2022/08/28 07:08:25;;;;;;;66.35;25.33;;;;;;;34.06;75.79;154621.41;5095040;28;20176;-63
2022/08/28 07:10:52;;;;;;;55.92;21.73;;;;;;;34.18;77.12;154652.28;5095330;28;20188;-63
2022/08/28 07:13:20;;;;;;;66.80;19.33;;;;;;;34.24;73.85;154669.00;5094966;28;20230;-64
2022/08/28 07:15:46;;;;;;;56.92;17.40;;;;;;;34.13;72.26;154639.38;5095445;28;20631;-64
2022/08/28 07:18:13;;;;;;;46.55;15.57;;;;;;;33.95;76.62;154595.69;5094994;28;20210;-63
2022/08/28 07:20:40;;;;;;;51.30;11.93;;;;;;;33.78;83.04;154552.03;5094914;28;20213;-63
2022/08/28 07:23:07;;;;;;;52.78;11.48;;;;;;;33.91;82.21;154584.13;5095468;28;20206;-64
2022/08/28 07:25:39;;;;;;;40.50;10.30;;;;;;;34.04;81.29;154616.22;5095625;28;20198;-63
2022/08/28 07:28:06;;;;;;;41.60;9.15;;;;;;;34.04;83.53;154616.22;5095052;28;20195;-63
2022/08/28 07:30:33;;;;;;;37.13;9.63;;;;;;;34.21;83.26;154661.25;5095033;28;20219;-64
2022/08/28 07:33:01;;;;;;;46.97;9.98;;;;;;;34.26;79.91;154672.81;5095036;28;20207;-64
2022/08/28 07:35:28;;;;;;;45.17;9.88;;;;;;;34.50;81.32;154734.47;5094992;28;20616;-64
2022/08/28 07:37:54;;;;;;;39.83;10.23;;;;;;;34.21;81.02;154661.25;5094874;28;20275;-64
2022/08/28 07:40:21;;;;;;;49.28;10.82;;;;;;;34.16;80.32;154648.41;5094679;28;20208;-64
2022/08/28 07:45:35;;;;;;;46.50;10.25;;;;;;;33.63;84.42;154513.47;5094943;28;20602;-64
2022/08/28 07:48:04;;;;;;;45.28;10.07;;;;;;;33.83;82.58;154564.88;5094370;28;20191;-63
2022/08/28 07:50:31;;;;;;;49.83;9.43;;;;;;;33.71;81.93;154534.06;5094955;28;20245;-63
2022/08/28 07:52:58;;;;;;;38.97;9.27;;;;;;;33.71;81.26;154532.78;5094545;28;20626;-64
2022/08/28 07:55:26;;;;;;;51.83;8.95;;;;;;;34.11;80.59;154634.25;5094515;28;20274;-64
2022/08/28 07:57:55;;;;;;;43.00;9.02;;;;;;;34.14;79.00;154643.25;5094578;28;20230;-64
2022/08/28 08:00:22;;;;;;;38.92;8.32;;;;;;;34.35;76.30;154695.94;5094524;28;20211;-63
2022/08/28 08:02:49;;;;;;;24.45;8.18;;;;;;;34.09;75.65;154629.09;5094005;28;20195;-64
2022/08/28 08:05:16;;;;;;;33.78;8.60;;;;;;;33.84;75.97;154566.16;5094268;28;20218;-64
2022/08/28 08:07:43;;;;;;;43.75;8.63;;;;;;;34.14;75.45;154641.94;5093066;28;20180;-62
2022/08/28 08:10:12;;;;;;;48.55;8.05;;;;;;;34.47;67.54;154726.78;5094318;28;20194;-64
2022/08/28 08:12:41;;;;;;;52.75;7.68;;;;;;;34.97;62.20;154852.78;5094385;28;20187;-64
2022/08/28 08:15:10;;;;;;;51.72;7.10;;;;;;;35.31;57.45;154940.19;5094161;28;20569;-64
2022/08/28 08:17:38;;;;;;;36.45;7.43;;;;;;;35.59;52.62;155010.91;5093711;28;20180;-64
2022/08/28 08:20:07;;;;;;;56.78;8.52;;;;;;;35.61;52.48;155017.31;5093797;28;20247;-64
2022/08/28 08:22:34;;;;;;;40.28;7.60;;;;;;;35.61;52.14;155017.31;5093943;28;20199;-63
2022/08/28 08:25:03;;;;;;;36.08;7.28;;;;;;;35.52;53.23;154994.16;5094059;28;20299;-64
2022/08/28 08:27:30;;;;;;;35.75;8.00;;;;;;;35.63;53.60;155022.53;5093575;28;20259;-64
2022/08/28 08:29:57;;;;;;;33.45;7.30;;;;;;;35.73;54.48;155048.22;5093522;28;20183;-65
2022/08/28 08:32:27;;;;;;;38.92;7.75;;;;;;;35.62;55.17;155019.91;5094111;28;20200;-65
2022/08/28 08:34:55;;;;;;;39.03;8.30;;;;;;;35.78;56.02;155058.50;5092693;28;20192;-64
2022/08/28 08:37:22;;;;;;;38.17;8.15;;;;;;;35.67;59.86;155032.81;5093569;28;20642;-64
2022/08/28 08:39:52;;;;;;;43.58;9.38;;;;;;;35.84;62.39;155075.22;5093836;28;20206;-64
2022/08/28 08:42:23;;;;;;;39.15;8.90;;;;;;;35.93;59.80;155098.38;5093929;28;20200;-65
2022/08/28 08:44:52;;;;;;;54.03;9.35;;;;;;;36.13;62.86;155149.84;5093391;28;20554;-64
2022/08/28 08:47:23;;;;;;;42.13;9.38;;;;;;;36.26;60.71;155180.72;5093136;28;20184;-64
2022/08/28 08:49:56;;;;;;;40.58;8.20;;;;;;;35.95;62.83;155102.22;5093771;28;20180;-65
2022/08/28 08:52:34;;;;;;;36.30;8.15;;;;;;;35.80;53.98;155063.66;5093151;28;20219;-64
2022/08/28 08:55:07;;;;;;;41.30;8.90;;;;;;;35.55;60.72;155000.63;5093677;28;20241;-65
2022/08/28 08:57:36;;;;;;;38.83;7.35;;;;;;;35.43;57.50;154969.78;5093742;28;20188;-64
2022/08/28 09:00:06;;;;;;;43.83;7.93;;;;;;;35.50;55.98;154989.06;5092849;28;20258;-64
2022/08/28 09:02:39;;;;;;;43.47;8.20;;;;;;;35.36;59.38;154953.03;5093452;28;20270;-64
2022/08/28 09:05:12;;;;;;;35.45;7.38;;;;;;;34.74;59.21;154796.22;5093326;28;20619;-64
2022/08/28 09:07:44;;;;;;;30.30;7.35;;;;;;;34.77;58.68;154802.63;5093078;28;20188;-64
2022/08/28 09:10:14;;;;;;;41.70;8.38;;;;;;;35.07;61.45;154879.75;5092839;28;20184;-65
2022/08/28 09:12:51;;;;;;;38.92;6.70;;;;;;;34.98;55.99;154855.31;5093335;28;20727;-65
2022/08/28 09:15:26;;;;;;;45.58;7.72;;;;;;;34.74;59.17;154794.94;5092936;28;20188;-64
2022/08/28 09:17:56;;;;;;;39.15;7.82;;;;;;;34.35;60.90;154697.25;5092621;28;20191;-65
2022/08/28 09:20:28;;;;;;;36.65;8.60;;;;;;;34.58;62.95;154755.06;5092956;28;20204;-64
2022/08/28 09:22:56;;;;;;;46.25;7.57;;;;;;;34.74;58.52;154794.94;5092498;28;20184;-64
2022/08/28 09:25:50;;;;;;;50.75;7.93;;;;;;;34.92;57.67;154841.22;5093106;28;20677;-63
2022/08/28 09:28:20;;;;;;;63.58;8.35;;;;;;;34.76;54.28;154801.34;5091789;28;20187;-64
2022/08/28 09:30:59;;;;;;;55.20;8.95;;;;;;;34.95;56.66;154848.91;5092375;28;20184;-64
2022/08/28 09:33:40;;;;;;;43.85;7.10;;;;;;;34.63;54.40;154766.63;5092760;28;20202;-64
2022/08/28 09:36:30;;;;;;;37.97;7.65;;;;;;;34.53;53.40;154740.91;5092368;28;20189;-64
2022/08/28 09:39:13;;;;;;;30.23;7.00;;;;;;;34.56;52.09;154748.63;5093399;28;20666;-63
2022/08/28 09:44:32;;;;;;;50.20;7.68;;;;;;;34.26;51.90;154672.81;5092432;28;20198;-64
2022/08/28 09:47:01;;;;;;;43.30;7.15;;;;;;;34.55;52.30;154747.31;5092279;28;20223;-64
2022/08/28 09:49:30;;;;;;;38.28;7.32;;;;;;;34.50;51.13;154734.47;5092773;28;20222;-64
2022/08/28 09:52:00;;;;;;;41.45;7.13;;;;;;;34.19;50.98;154656.16;5092529;28;20184;-64
2022/08/28 09:54:33;;;;;;;51.13;7.45;;;;;;;34.31;52.59;154685.69;5092247;28;20271;-65
2022/08/28 09:57:02;;;;;;;48.05;7.40;;;;;;;34.34;52.91;154693.38;5092259;28;20184;-64
2022/08/28 09:59:29;;;;;;;45.67;7.28;;;;;;;34.34;52.51;154693.38;5092462;28;20749;-64
2022/08/28 10:02:10;;;;;;;40.95;7.38;;;;;;;34.48;52.81;154728.06;5092123;28;20186;-63
2022/08/28 10:05:01;;;;;;;45.63;7.97;;;;;;;34.29;50.97;154681.81;5092541;28;20223;-63
2022/08/28 10:07:41;;;;;;;31.35;7.32;;;;;;;34.04;54.45;154617.53;5092353;28;20207;-64
2022/08/28 10:10:21;;;;;;;42.17;8.00;;;;;;;34.24;58.35;154669.00;5092236;28;20195;-64
2022/08/28 10:13:00;;;;;;;47.03;8.25;;;;;;;33.95;58.72;154595.69;5091879;28;20187;-64
2022/08/28 10:15:33;;;;;;;46.78;7.22;;;;;;;34.25;57.03;154670.25;5092264;28;20208;-64
2022/08/28 10:18:34;;;;;;;39.08;7.45;;;;;;;34.19;60.41;154654.84;5092236;28;20563;-64
2022/08/28 10:21:09;;;;;;;54.60;9.10;;;;;;;34.10;60.23;154631.66;5084337;28;20230;-64
2022/08/28 10:23:48;;;;;;;38.50;7.60;;;;;;;34.00;61.19;154607.25;5091733;28;20194;-64
2022/08/28 10:26:28;;;;;;;48.35;8.65;;;;;;;33.84;58.89;154567.44;5092307;28;20190;-63
2022/08/28 10:29:09;;;;;;;51.17;8.98;;;;;;;33.76;59.24;154546.91;5092385;28;20284;-64
2022/08/28 10:31:43;;;;;;;36.60;7.70;;;;;;;33.56;63.27;154494.22;5091067;28;20192;-63
2022/08/28 10:34:30;;;;;;;51.88;7.80;;;;;;;33.61;66.43;154508.31;5092177;28;20653;-63
2022/08/28 10:37:06;;;;;;;36.95;7.47;;;;;;;33.69;69.33;154528.94;5092139;28;20545;-63
2022/08/28 10:39:47;;;;;;;30.48;7.40;;;;;;;33.66;66.69;154521.22;5092534;28;20199;-63
2022/08/28 10:42:25;;;;;;;29.27;7.18;;;;;;;33.92;65.22;154586.72;5095448;28;20191;-64
2022/08/28 10:44:59;;;;;;;45.65;8.50;;;;;;;34.04;69.84;154616.22;5095638;28;20188;-63
2022/08/28 10:47:29;;;;;;;26.98;6.90;;;;;;;34.20;64.48;154657.44;5095065;28;20194;-63
2022/08/28 10:50:02;;;;;;;37.53;6.90;;;;;;;34.04;56.36;154616.22;5094517;28;20180;-64
2022/08/28 10:52:33;;;;;;;42.17;6.65;;;;;;;34.24;57.81;154667.69;5095764;28;20263;-64
2022/08/28 10:55:05;;;;;;;28.83;6.20;;;;;;;33.91;64.60;154585.41;5095665;28;20188;-63
2022/08/28 10:57:36;;;;;;;32.42;7.43;;;;;;;33.62;64.94;154510.88;5095814;28;20181;-64
2022/08/28 11:00:08;;;;;;;35.20;7.00;;;;;;;33.84;69.11;154566.16;5095328;28;20208;-63
2022/08/28 11:02:36;;;;;;;38.85;7.65;;;;;;;33.74;64.53;154541.75;5095635;28;20191;-62
2022/08/28 11:05:04;;;;;;;37.15;7.60;;;;;;;33.44;68.04;154465.94;5095297;28;20249;-62
2022/08/28 11:07:36;;;;;;;39.50;7.82;;;;;;;33.16;66.94;154392.75;5095472;28;20180;-63
2022/08/28 11:10:20;;;;;;;37.65;7.75;;;;;;;33.03;65.82;154360.63;5095137;28;20184;-64
2022/08/28 11:12:50;;;;;;;47.90;7.15;;;;;;;33.05;67.63;154365.78;5095378;28;20649;-64
2022/08/28 11:15:42;;;;;;;42.92;7.72;;;;;;;33.16;67.12;154392.75;5095120;28;20199;-63
2022/08/28 11:18:42;;;;;;;31.00;6.80;;;;;;;33.20;70.12;154403.03;5095394;28;20280;-63
2022/08/28 11:21:16;;;;;;;29.83;6.93;;;;;;;32.74;68.05;154287.47;5095509;28;20208;-62
2022/08/28 11:23:48;;;;;;;40.53;6.55;;;;;;;32.42;71.90;154206.53;5095046;28;20184;-63
2022/08/28 11:26:29;;;;;;;41.47;7.32;;;;;;;32.27;71.77;154168.06;5094757;28;20195;-62